sensor_id;sensor_type;location;lat;lon;timestamp;temperature;humidity
8684;DHT22;4379;59.744;18.206;2023-03-19T00:00:42;3.00;99.90
8684;DHT22;4379;59.744;18.206;2023-03-19T00:03:09;2.80;99.90
8684;DHT22;4379;59.744;18.206;2023-03-19T00:05:37;2.60;99.90
8684;DHT22;4379;59.744;18.206;2023-03-19T00:08:04;2.50;99.90
8684;DHT22;4379;59.744;18.206;2023-03-19T00:10:32;2.50;99.90
8684;DHT22;4379;59.744;18.206;2023-03-19T00:12:59;2.60;99.90
8684;DHT22;4379;59.744;18.206;2023-03-19T00:15:26;2.70;99.90
8684;DHT22;4379;59.744;18.206;2023-03-19T00:17:53;2.60;99.90
8684;DHT22;4379;59.744;18.206;2023-03-19T00:20:22;2.70;99.90
8684;DHT22;4379;59.744;18.206;2023-03-19T00:22:49;2.80;99.90
8684;DHT22;4379;59.744;18.206;2023-03-19T00:25:17;2.60;99.90
8684;DHT22;4379;59.744;18.206;2023-03-19T00:27:44;2.60;99.90
8684;DHT22;4379;59.744;18.206;2023-03-19T00:30:12;2.70;99.90
8684;DHT22;4379;59.744;18.206;2023-03-19T00:32:40;2.80;99.90
8684;DHT22;4379;59.744;18.206;2023-03-19T00:35:08;2.90;99.90
8684;DHT22;4379;59.744;18.206;2023-03-19T00:37:36;2.90;99.90
8684;DHT22;4379;59.744;18.206;2023-03-19T00:40:03;2.90;99.90
8684;DHT22;4379;59.744;18.206;2023-03-19T00:42:31;2.90;99.90
8684;DHT22;4379;59.744;18.206;2023-03-19T00:44:58;2.80;99.90
8684;DHT22;4379;59.744;18.206;2023-03-19T00:47:26;2.60;99.90
8684;DHT22;4379;59.744;18.206;2023-03-19T00:49:53;2.70;99.90
8684;DHT22;4379;59.744;18.206;2023-03-19T00:52:20;2.70;99.90
8684;DHT22;4379;59.744;18.206;2023-03-19T00:54:47;2.70;99.90
8684;DHT22;4379;59.744;18.206;2023-03-19T00:57:15;2.80;99.90
8684;DHT22;4379;59.744;18.206;2023-03-19T00:59:42;2.80;99.90
8684;DHT22;4379;59.744;18.206;2023-03-19T01:02:09;2.80;99.90
8684;DHT22;4379;59.744;18.206;2023-03-19T01:04:36;2.80;99.90
8684;DHT22;4379;59.744;18.206;2023-03-19T01:07:03;2.80;99.90
8684;DHT22;4379;59.744;18.206;2023-03-19T01:09:31;2.80;99.90
8684;DHT22;4379;59.744;18.206;2023-03-19T01:11:58;2.80;99.90
8684;DHT22;4379;59.744;18.206;2023-03-19T01:14:30;2.70;99.90
8684;DHT22;4379;59.744;18.206;2023-03-19T01:16:58;2.70;99.90
8684;DHT22;4379;59.744;18.206;2023-03-19T01:19:25;2.70;99.90
8684;DHT22;4379;59.744;18.206;2023-03-19T01:21:53;2.60;99.90
8684;DHT22;4379;59.744;18.206;2023-03-19T01:24:20;2.50;99.90
8684;DHT22;4379;59.744;18.206;2023-03-19T01:26:47;2.50;99.90
8684;DHT22;4379;59.744;18.206;2023-03-19T01:29:14;2.60;99.90
8684;DHT22;4379;59.744;18.206;2023-03-19T01:31:42;2.50;99.90
8684;DHT22;4379;59.744;18.206;2023-03-19T01:34:09;2.60;99.90
8684;DHT22;4379;59.744;18.206;2023-03-19T01:36:36;2.60;99.90
8684;DHT22;4379;59.744;18.206;2023-03-19T01:39:04;2.50;99.90
8684;DHT22;4379;59.744;18.206;2023-03-19T01:41:31;2.50;99.90
8684;DHT22;4379;59.744;18.206;2023-03-19T01:43:58;2.60;99.90
8684;DHT22;4379;59.744;18.206;2023-03-19T01:46:32;2.60;99.90
8684;DHT22;4379;59.744;18.206;2023-03-19T01:49:04;2.50;99.90
8684;DHT22;4379;59.744;18.206;2023-03-19T01:51:36;2.50;99.90
8684;DHT22;4379;59.744;18.206;2023-03-19T01:54:08;2.60;99.90
8684;DHT22;4379;59.744;18.206;2023-03-19T01:56:39;2.50;99.90
8684;DHT22;4379;59.744;18.206;2023-03-19T01:59:32;2.50;99.90
8684;DHT22;4379;59.744;18.206;2023-03-19T02:02:01;2.40;99.90
8684;DHT22;4379;59.744;18.206;2023-03-19T02:04:31;2.40;99.90
8684;DHT22;4379;59.744;18.206;2023-03-19T02:07:01;2.50;99.90
8684;DHT22;4379;59.744;18.206;2023-03-19T02:09:29;2.40;99.90
8684;DHT22;4379;59.744;18.206;2023-03-19T02:11:58;2.30;99.90
8684;DHT22;4379;59.744;18.206;2023-03-19T02:14:26;2.40;99.90
8684;DHT22;4379;59.744;18.206;2023-03-19T02:16:54;2.40;99.90
8684;DHT22;4379;59.744;18.206;2023-03-19T02:21:59;2.50;99.90
8684;DHT22;4379;59.744;18.206;2023-03-19T02:24:58;2.50;99.90
8684;DHT22;4379;59.744;18.206;2023-03-19T02:27:27;2.50;99.90
8684;DHT22;4379;59.744;18.206;2023-03-19T02:29:55;2.50;99.90
8684;DHT22;4379;59.744;18.206;2023-03-19T02:32:22;2.50;99.90
8684;DHT22;4379;59.744;18.206;2023-03-19T02:34:49;2.40;99.90
8684;DHT22;4379;59.744;18.206;2023-03-19T02:37:25;2.40;99.90
8684;DHT22;4379;59.744;18.206;2023-03-19T02:39:58;2.40;99.90
8684;DHT22;4379;59.744;18.206;2023-03-19T02:42:27;2.50;99.90
8684;DHT22;4379;59.744;18.206;2023-03-19T02:44:55;2.40;99.90
8684;DHT22;4379;59.744;18.206;2023-03-19T02:47:24;2.40;99.90
8684;DHT22;4379;59.744;18.206;2023-03-19T02:49:51;2.40;99.90
8684;DHT22;4379;59.744;18.206;2023-03-19T02:52:18;2.40;99.90
8684;DHT22;4379;59.744;18.206;2023-03-19T02:54:46;2.40;99.90
8684;DHT22;4379;59.744;18.206;2023-03-19T02:57:14;2.40;99.90
8684;DHT22;4379;59.744;18.206;2023-03-19T02:59:41;2.40;99.90
8684;DHT22;4379;59.744;18.206;2023-03-19T03:02:08;2.40;99.90
8684;DHT22;4379;59.744;18.206;2023-03-19T03:04:36;2.40;99.90
8684;DHT22;4379;59.744;18.206;2023-03-19T03:07:04;2.30;99.90
8684;DHT22;4379;59.744;18.206;2023-03-19T03:09:32;2.30;99.90
8684;DHT22;4379;59.744;18.206;2023-03-19T03:11:59;2.10;99.90
8684;DHT22;4379;59.744;18.206;2023-03-19T03:14:26;2.10;99.90
8684;DHT22;4379;59.744;18.206;2023-03-19T03:16:53;2.00;99.90
8684;DHT22;4379;59.744;18.206;2023-03-19T03:19:20;2.00;99.90
8684;DHT22;4379;59.744;18.206;2023-03-19T03:21:49;1.90;99.90
8684;DHT22;4379;59.744;18.206;2023-03-19T03:24:17;1.90;99.90
8684;DHT22;4379;59.744;18.206;2023-03-19T03:26:44;1.90;99.90
8684;DHT22;4379;59.744;18.206;2023-03-19T03:29:12;1.80;99.90
8684;DHT22;4379;59.744;18.206;2023-03-19T03:31:39;1.70;99.90
8684;DHT22;4379;59.744;18.206;2023-03-19T03:34:06;1.60;99.90
8684;DHT22;4379;59.744;18.206;2023-03-19T03:36:33;1.60;99.90
8684;DHT22;4379;59.744;18.206;2023-03-19T03:39:00;1.40;99.90
8684;DHT22;4379;59.744;18.206;2023-03-19T03:41:27;1.40;99.90
8684;DHT22;4379;59.744;18.206;2023-03-19T03:43:54;1.20;99.90
8684;DHT22;4379;59.744;18.206;2023-03-19T03:46:22;1.00;99.90
8684;DHT22;4379;59.744;18.206;2023-03-19T03:48:50;0.90;99.90
8684;DHT22;4379;59.744;18.206;2023-03-19T03:51:18;0.80;99.90
8684;DHT22;4379;59.744;18.206;2023-03-19T03:53:45;0.90;99.90
8684;DHT22;4379;59.744;18.206;2023-03-19T03:56:12;0.80;99.90
8684;DHT22;4379;59.744;18.206;2023-03-19T03:58:40;0.80;99.90
8684;DHT22;4379;59.744;18.206;2023-03-19T04:01:08;0.50;99.90
8684;DHT22;4379;59.744;18.206;2023-03-19T04:03:36;0.50;99.90
8684;DHT22;4379;59.744;18.206;2023-03-19T04:06:03;0.40;99.90
8684;DHT22;4379;59.744;18.206;2023-03-19T04:08:30;0.30;99.90
8684;DHT22;4379;59.744;18.206;2023-03-19T04:10:58;0.30;99.90
8684;DHT22;4379;59.744;18.206;2023-03-19T04:13:25;0.30;99.90
8684;DHT22;4379;59.744;18.206;2023-03-19T04:15:53;0.10;99.90
8684;DHT22;4379;59.744;18.206;2023-03-19T04:18:21;-0.10;99.90
8684;DHT22;4379;59.744;18.206;2023-03-19T04:20:48;-0.30;99.90
8684;DHT22;4379;59.744;18.206;2023-03-19T04:23:16;-0.40;99.90
8684;DHT22;4379;59.744;18.206;2023-03-19T04:25:43;-0.50;99.90
8684;DHT22;4379;59.744;18.206;2023-03-19T04:28:10;-0.50;99.90
8684;DHT22;4379;59.744;18.206;2023-03-19T04:30:37;-0.50;99.90
8684;DHT22;4379;59.744;18.206;2023-03-19T04:33:05;-0.60;99.90
8684;DHT22;4379;59.744;18.206;2023-03-19T04:35:33;-0.60;99.90
8684;DHT22;4379;59.744;18.206;2023-03-19T04:38:00;-0.60;99.90
8684;DHT22;4379;59.744;18.206;2023-03-19T04:40:27;-0.60;99.90
8684;DHT22;4379;59.744;18.206;2023-03-19T04:42:55;-0.50;99.90
8684;DHT22;4379;59.744;18.206;2023-03-19T04:45:22;-0.60;99.90
8684;DHT22;4379;59.744;18.206;2023-03-19T04:47:49;-0.60;99.90
8684;DHT22;4379;59.744;18.206;2023-03-19T04:50:16;-0.50;99.90
8684;DHT22;4379;59.744;18.206;2023-03-19T04:52:43;-0.50;99.90
8684;DHT22;4379;59.744;18.206;2023-03-19T04:55:11;-0.50;99.90
8684;DHT22;4379;59.744;18.206;2023-03-19T04:57:38;-0.50;99.90
8684;DHT22;4379;59.744;18.206;2023-03-19T05:00:05;-0.50;99.90
8684;DHT22;4379;59.744;18.206;2023-03-19T05:02:33;-0.40;99.90
8684;DHT22;4379;59.744;18.206;2023-03-19T05:05:00;-0.30;99.90
8684;DHT22;4379;59.744;18.206;2023-03-19T05:07:27;-0.30;99.90
8684;DHT22;4379;59.744;18.206;2023-03-19T05:09:54;-0.30;99.90
8684;DHT22;4379;59.744;18.206;2023-03-19T05:12:21;-0.30;99.90
8684;DHT22;4379;59.744;18.206;2023-03-19T05:14:48;-0.20;99.90
8684;DHT22;4379;59.744;18.206;2023-03-19T05:17:16;-0.20;99.90
8684;DHT22;4379;59.744;18.206;2023-03-19T05:19:43;-0.30;99.90
8684;DHT22;4379;59.744;18.206;2023-03-19T05:22:10;-0.40;99.90
8684;DHT22;4379;59.744;18.206;2023-03-19T05:24:37;-0.30;99.90
8684;DHT22;4379;59.744;18.206;2023-03-19T05:27:04;-0.30;99.90
8684;DHT22;4379;59.744;18.206;2023-03-19T05:29:32;-0.30;99.90
8684;DHT22;4379;59.744;18.206;2023-03-19T05:31:59;-0.30;99.90
8684;DHT22;4379;59.744;18.206;2023-03-19T05:34:29;-0.20;99.90
8684;DHT22;4379;59.744;18.206;2023-03-19T05:36:56;-0.10;99.90
8684;DHT22;4379;59.744;18.206;2023-03-19T05:39:23;-0.10;99.90
8684;DHT22;4379;59.744;18.206;2023-03-19T05:41:51;-0.10;99.90
8684;DHT22;4379;59.744;18.206;2023-03-19T05:44:18;-0.10;99.90
8684;DHT22;4379;59.744;18.206;2023-03-19T05:46:46;-0.10;99.90
8684;DHT22;4379;59.744;18.206;2023-03-19T05:49:14;-0.10;99.90
8684;DHT22;4379;59.744;18.206;2023-03-19T05:51:41;-0.20;99.90
8684;DHT22;4379;59.744;18.206;2023-03-19T05:54:08;-0.20;99.90
8684;DHT22;4379;59.744;18.206;2023-03-19T05:56:35;-0.10;99.90
8684;DHT22;4379;59.744;18.206;2023-03-19T05:59:03;0.10;99.90
8684;DHT22;4379;59.744;18.206;2023-03-19T06:01:30;0.10;99.90
8684;DHT22;4379;59.744;18.206;2023-03-19T06:03:57;0.10;99.90
8684;DHT22;4379;59.744;18.206;2023-03-19T06:06:24;0.20;99.90
8684;DHT22;4379;59.744;18.206;2023-03-19T06:08:51;0.20;99.90
8684;DHT22;4379;59.744;18.206;2023-03-19T06:11:19;0.20;99.90
8684;DHT22;4379;59.744;18.206;2023-03-19T06:13:46;0.30;99.90
8684;DHT22;4379;59.744;18.206;2023-03-19T06:16:14;0.30;99.90
8684;DHT22;4379;59.744;18.206;2023-03-19T06:18:41;0.30;99.90
8684;DHT22;4379;59.744;18.206;2023-03-19T06:21:08;0.30;99.90
8684;DHT22;4379;59.744;18.206;2023-03-19T06:23:35;0.40;99.90
8684;DHT22;4379;59.744;18.206;2023-03-19T06:26:02;0.30;99.90
8684;DHT22;4379;59.744;18.206;2023-03-19T06:28:31;0.40;99.90
8684;DHT22;4379;59.744;18.206;2023-03-19T06:30:58;0.40;99.90
8684;DHT22;4379;59.744;18.206;2023-03-19T06:33:26;0.40;99.90
8684;DHT22;4379;59.744;18.206;2023-03-19T06:35:58;0.40;99.90
8684;DHT22;4379;59.744;18.206;2023-03-19T06:38:25;0.40;99.90
8684;DHT22;4379;59.744;18.206;2023-03-19T06:40:52;0.40;99.90
8684;DHT22;4379;59.744;18.206;2023-03-19T06:43:20;0.50;99.90
8684;DHT22;4379;59.744;18.206;2023-03-19T06:45:47;0.50;99.90
8684;DHT22;4379;59.744;18.206;2023-03-19T06:48:15;0.70;99.90
8684;DHT22;4379;59.744;18.206;2023-03-19T06:50:44;0.70;99.90
8684;DHT22;4379;59.744;18.206;2023-03-19T06:53:13;0.80;99.90
8684;DHT22;4379;59.744;18.206;2023-03-19T06:55:40;0.90;99.90
8684;DHT22;4379;59.744;18.206;2023-03-19T06:58:07;0.90;99.90
8684;DHT22;4379;59.744;18.206;2023-03-19T07:00:34;0.90;99.90
8684;DHT22;4379;59.744;18.206;2023-03-19T07:03:02;0.90;99.90
8684;DHT22;4379;59.744;18.206;2023-03-19T07:05:29;1.10;99.90
8684;DHT22;4379;59.744;18.206;2023-03-19T07:07:57;1.20;99.90
8684;DHT22;4379;59.744;18.206;2023-03-19T07:10:24;1.40;99.90
8684;DHT22;4379;59.744;18.206;2023-03-19T07:12:51;1.50;99.90
8684;DHT22;4379;59.744;18.206;2023-03-19T07:15:18;1.60;99.90
8684;DHT22;4379;59.744;18.206;2023-03-19T07:17:49;2.20;99.90
8684;DHT22;4379;59.744;18.206;2023-03-19T07:20:16;3.10;99.90
8684;DHT22;4379;59.744;18.206;2023-03-19T07:22:43;3.60;99.90
8684;DHT22;4379;59.744;18.206;2023-03-19T07:25:10;4.00;99.90
8684;DHT22;4379;59.744;18.206;2023-03-19T07:27:38;3.90;99.90
8684;DHT22;4379;59.744;18.206;2023-03-19T07:30:05;3.60;99.90
8684;DHT22;4379;59.744;18.206;2023-03-19T07:32:33;3.30;99.90
8684;DHT22;4379;59.744;18.206;2023-03-19T07:35:00;3.70;99.90
8684;DHT22;4379;59.744;18.206;2023-03-19T07:37:27;3.80;99.90
8684;DHT22;4379;59.744;18.206;2023-03-19T07:39:55;4.50;99.90
8684;DHT22;4379;59.744;18.206;2023-03-19T07:42:22;5.80;99.90
8684;DHT22;4379;59.744;18.206;2023-03-19T07:44:49;7.50;99.90
8684;DHT22;4379;59.744;18.206;2023-03-19T07:47:16;8.20;99.90
8684;DHT22;4379;59.744;18.206;2023-03-19T07:49:55;7.80;99.90
8684;DHT22;4379;59.744;18.206;2023-03-19T07:52:23;7.10;99.90
8684;DHT22;4379;59.744;18.206;2023-03-19T07:54:51;6.60;99.90
8684;DHT22;4379;59.744;18.206;2023-03-19T07:57:19;6.10;99.90
8684;DHT22;4379;59.744;18.206;2023-03-19T07:59:46;5.80;99.90
8684;DHT22;4379;59.744;18.206;2023-03-19T08:02:14;5.80;99.90
8684;DHT22;4379;59.744;18.206;2023-03-19T08:04:41;7.50;99.90
8684;DHT22;4379;59.744;18.206;2023-03-19T08:07:08;10.00;99.90
8684;DHT22;4379;59.744;18.206;2023-03-19T08:09:39;11.30;99.90
8684;DHT22;4379;59.744;18.206;2023-03-19T08:12:06;9.80;99.90
8684;DHT22;4379;59.744;18.206;2023-03-19T08:14:34;9.90;99.90
8684;DHT22;4379;59.744;18.206;2023-03-19T08:17:02;10.20;99.90
8684;DHT22;4379;59.744;18.206;2023-03-19T08:19:29;10.20;99.90
8684;DHT22;4379;59.744;18.206;2023-03-19T08:21:56;9.20;99.90
8684;DHT22;4379;59.744;18.206;2023-03-19T08:24:23;8.30;99.90
8684;DHT22;4379;59.744;18.206;2023-03-19T08:26:50;8.20;99.90
8684;DHT22;4379;59.744;18.206;2023-03-19T08:29:18;8.30;99.90
8684;DHT22;4379;59.744;18.206;2023-03-19T08:31:45;7.80;99.90
8684;DHT22;4379;59.744;18.206;2023-03-19T08:34:12;8.10;99.90
8684;DHT22;4379;59.744;18.206;2023-03-19T08:36:39;7.90;99.90
8684;DHT22;4379;59.744;18.206;2023-03-19T08:39:07;8.10;99.90
8684;DHT22;4379;59.744;18.206;2023-03-19T08:41:34;7.70;99.90
8684;DHT22;4379;59.744;18.206;2023-03-19T08:44:01;8.10;99.90
8684;DHT22;4379;59.744;18.206;2023-03-19T08:46:29;8.50;99.90
8684;DHT22;4379;59.744;18.206;2023-03-19T08:48:56;8.40;99.90
8684;DHT22;4379;59.744;18.206;2023-03-19T08:51:24;8.10;99.90
8684;DHT22;4379;59.744;18.206;2023-03-19T08:53:52;8.50;99.90
8684;DHT22;4379;59.744;18.206;2023-03-19T08:56:19;8.90;99.90
8684;DHT22;4379;59.744;18.206;2023-03-19T08:58:47;9.20;99.90
8684;DHT22;4379;59.744;18.206;2023-03-19T09:01:14;9.50;99.90
8684;DHT22;4379;59.744;18.206;2023-03-19T09:03:42;10.10;99.90
8684;DHT22;4379;59.744;18.206;2023-03-19T09:06:12;10.10;99.90
8684;DHT22;4379;59.744;18.206;2023-03-19T09:08:41;10.10;99.90
8684;DHT22;4379;59.744;18.206;2023-03-19T09:11:08;10.00;99.90
8684;DHT22;4379;59.744;18.206;2023-03-19T09:13:36;10.20;99.90
8684;DHT22;4379;59.744;18.206;2023-03-19T09:16:04;10.60;99.90
8684;DHT22;4379;59.744;18.206;2023-03-19T09:18:32;10.70;99.90
8684;DHT22;4379;59.744;18.206;2023-03-19T09:21:00;9.40;99.90
8684;DHT22;4379;59.744;18.206;2023-03-19T09:23:27;9.90;99.90
8684;DHT22;4379;59.744;18.206;2023-03-19T09:25:55;9.40;99.90
8684;DHT22;4379;59.744;18.206;2023-03-19T09:28:22;10.00;99.90
8684;DHT22;4379;59.744;18.206;2023-03-19T09:30:50;9.50;99.90
8684;DHT22;4379;59.744;18.206;2023-03-19T09:33:19;10.00;99.90
8684;DHT22;4379;59.744;18.206;2023-03-19T09:35:51;9.90;99.90
8684;DHT22;4379;59.744;18.206;2023-03-19T09:38:20;9.70;99.90
8684;DHT22;4379;59.744;18.206;2023-03-19T09:40:58;9.50;99.90
8684;DHT22;4379;59.744;18.206;2023-03-19T09:46:46;9.30;99.90
8684;DHT22;4379;59.744;18.206;2023-03-19T09:54:31;9.20;99.90
8684;DHT22;4379;59.744;18.206;2023-03-19T09:57:00;8.70;99.90
8684;DHT22;4379;59.744;18.206;2023-03-19T09:59:28;9.10;99.90
8684;DHT22;4379;59.744;18.206;2023-03-19T10:04:45;9.60;99.90
8684;DHT22;4379;59.744;18.206;2023-03-19T10:15:28;9.00;99.90
8684;DHT22;4379;59.744;18.206;2023-03-19T10:18:23;9.60;99.90
8684;DHT22;4379;59.744;18.206;2023-03-19T10:26:02;9.50;99.90
8684;DHT22;4379;59.744;18.206;2023-03-19T10:28:29;9.40;99.90
8684;DHT22;4379;59.744;18.206;2023-03-19T10:31:09;9.70;99.90
8684;DHT22;4379;59.744;18.206;2023-03-19T10:33:51;9.10;99.90
8684;DHT22;4379;59.744;18.206;2023-03-19T10:36:20;8.40;99.90
8684;DHT22;4379;59.744;18.206;2023-03-19T10:38:51;9.10;99.90
8684;DHT22;4379;59.744;18.206;2023-03-19T10:44:12;9.00;99.90
8684;DHT22;4379;59.744;18.206;2023-03-19T10:46:42;9.00;99.90
8684;DHT22;4379;59.744;18.206;2023-03-19T10:49:14;9.30;99.90
8684;DHT22;4379;59.744;18.206;2023-03-19T10:51:47;9.70;99.90
8684;DHT22;4379;59.744;18.206;2023-03-19T10:54:21;9.90;99.90
8684;DHT22;4379;59.744;18.206;2023-03-19T10:56:49;9.50;99.90
8684;DHT22;4379;59.744;18.206;2023-03-19T11:01:58;10.30;99.90
8684;DHT22;4379;59.744;18.206;2023-03-19T11:04:27;10.30;99.90
8684;DHT22;4379;59.744;18.206;2023-03-19T11:07:01;10.10;99.90
8684;DHT22;4379;59.744;18.206;2023-03-19T11:09:39;10.10;99.90
8684;DHT22;4379;59.744;18.206;2023-03-19T11:12:20;10.20;99.90
8684;DHT22;4379;59.744;18.206;2023-03-19T11:14:57;9.20;99.90
8684;DHT22;4379;59.744;18.206;2023-03-19T11:17:47;9.30;99.90
8684;DHT22;4379;59.744;18.206;2023-03-19T11:22:51;9.60;99.90
8684;DHT22;4379;59.744;18.206;2023-03-19T11:25:27;9.90;99.90
8684;DHT22;4379;59.744;18.206;2023-03-19T11:28:07;9.90;99.90
8684;DHT22;4379;59.744;18.206;2023-03-19T11:36:37;9.30;99.90
8684;DHT22;4379;59.744;18.206;2023-03-19T11:39:11;9.30;99.90
8684;DHT22;4379;59.744;18.206;2023-03-19T11:52:39;9.80;99.90
8684;DHT22;4379;59.744;18.206;2023-03-19T12:00:51;9.50;99.90
8684;DHT22;4379;59.744;18.206;2023-03-19T12:03:38;9.20;99.90
8684;DHT22;4379;59.744;18.206;2023-03-19T12:06:22;9.30;99.90
8684;DHT22;4379;59.744;18.206;2023-03-19T12:09:01;9.60;99.90
8684;DHT22;4379;59.744;18.206;2023-03-19T12:12:20;9.50;99.90
8684;DHT22;4379;59.744;18.206;2023-03-19T12:17:15;9.20;99.90
8684;DHT22;4379;59.744;18.206;2023-03-19T12:20:08;8.80;99.90
8684;DHT22;4379;59.744;18.206;2023-03-19T12:33:31;9.00;99.90
8684;DHT22;4379;59.744;18.206;2023-03-19T12:36:07;8.30;99.90
8684;DHT22;4379;59.744;18.206;2023-03-19T12:38:48;8.40;99.90
8684;DHT22;4379;59.744;18.206;2023-03-19T12:41:21;8.90;99.90
8684;DHT22;4379;59.744;18.206;2023-03-19T12:44:03;9.00;99.90
8684;DHT22;4379;59.744;18.206;2023-03-19T12:49:13;9.30;99.90
8684;DHT22;4379;59.744;18.206;2023-03-19T12:51:44;9.10;99.90
8684;DHT22;4379;59.744;18.206;2023-03-19T12:54:17;8.40;99.90
8684;DHT22;4379;59.744;18.206;2023-03-19T13:02:21;8.10;99.90
8684;DHT22;4379;59.744;18.206;2023-03-19T13:07:56;7.80;99.90
8684;DHT22;4379;59.744;18.206;2023-03-19T13:10:26;8.40;99.90
8684;DHT22;4379;59.744;18.206;2023-03-19T13:12:55;8.90;99.90
8684;DHT22;4379;59.744;18.206;2023-03-19T13:20:50;9.00;99.90
8684;DHT22;4379;59.744;18.206;2023-03-19T13:23:26;8.70;99.90
8684;DHT22;4379;59.744;18.206;2023-03-19T13:25:56;8.70;99.90
8684;DHT22;4379;59.744;18.206;2023-03-19T13:28:33;8.50;99.90
8684;DHT22;4379;59.744;18.206;2023-03-19T13:31:06;8.60;99.90
8684;DHT22;4379;59.744;18.206;2023-03-19T13:33:34;8.40;99.90
8684;DHT22;4379;59.744;18.206;2023-03-19T13:36:06;8.00;99.90
8684;DHT22;4379;59.744;18.206;2023-03-19T13:38:44;7.90;99.90
8684;DHT22;4379;59.744;18.206;2023-03-19T13:43:59;7.70;99.90
8684;DHT22;4379;59.744;18.206;2023-03-19T13:46:37;7.50;99.90
8684;DHT22;4379;59.744;18.206;2023-03-19T13:49:26;7.50;99.90
8684;DHT22;4379;59.744;18.206;2023-03-19T13:54:45;7.70;99.90
8684;DHT22;4379;59.744;18.206;2023-03-19T13:59:48;7.30;99.90
8684;DHT22;4379;59.744;18.206;2023-03-19T14:07:51;7.60;99.90
8684;DHT22;4379;59.744;18.206;2023-03-19T14:10:45;7.70;99.90
8684;DHT22;4379;59.744;18.206;2023-03-19T14:13:39;7.80;99.90
8684;DHT22;4379;59.744;18.206;2023-03-19T14:16:17;7.80;99.90
8684;DHT22;4379;59.744;18.206;2023-03-19T14:18:46;7.70;99.90
8684;DHT22;4379;59.744;18.206;2023-03-19T14:21:20;7.70;99.90
8684;DHT22;4379;59.744;18.206;2023-03-19T14:27:30;7.60;99.90
8684;DHT22;4379;59.744;18.206;2023-03-19T14:30:07;7.40;99.90
8684;DHT22;4379;59.744;18.206;2023-03-19T14:32:38;7.50;99.90
8684;DHT22;4379;59.744;18.206;2023-03-19T14:35:14;7.50;99.90
8684;DHT22;4379;59.744;18.206;2023-03-19T14:37:47;7.40;99.90
8684;DHT22;4379;59.744;18.206;2023-03-19T14:40:19;7.40;99.90
8684;DHT22;4379;59.744;18.206;2023-03-19T14:50:58;7.30;99.90
8684;DHT22;4379;59.744;18.206;2023-03-19T14:53:54;7.40;99.90
8684;DHT22;4379;59.744;18.206;2023-03-19T14:56:40;7.10;99.90
8684;DHT22;4379;59.744;18.206;2023-03-19T14:59:10;7.00;99.90
8684;DHT22;4379;59.744;18.206;2023-03-19T15:01:40;7.10;99.90
8684;DHT22;4379;59.744;18.206;2023-03-19T15:04:12;7.10;99.90
8684;DHT22;4379;59.744;18.206;2023-03-19T15:06:51;7.00;99.90
8684;DHT22;4379;59.744;18.206;2023-03-19T15:09:25;6.90;99.90
8684;DHT22;4379;59.744;18.206;2023-03-19T15:14:45;6.70;99.90
8684;DHT22;4379;59.744;18.206;2023-03-19T15:17:26;6.60;99.90
8684;DHT22;4379;59.744;18.206;2023-03-19T15:19:54;6.50;99.90
8684;DHT22;4379;59.744;18.206;2023-03-19T15:22:28;6.60;99.90
8684;DHT22;4379;59.744;18.206;2023-03-19T15:25:11;6.60;99.90
8684;DHT22;4379;59.744;18.206;2023-03-19T15:27:40;6.80;99.90
8684;DHT22;4379;59.744;18.206;2023-03-19T15:30:25;6.70;99.90
8684;DHT22;4379;59.744;18.206;2023-03-19T15:32:55;6.70;99.90
8684;DHT22;4379;59.744;18.206;2023-03-19T15:35:40;6.70;99.90
8684;DHT22;4379;59.744;18.206;2023-03-19T15:38:09;6.60;99.90
8684;DHT22;4379;59.744;18.206;2023-03-19T15:40:40;6.40;99.90
8684;DHT22;4379;59.744;18.206;2023-03-19T15:43:09;6.40;99.90
8684;DHT22;4379;59.744;18.206;2023-03-19T15:45:39;6.40;99.90
8684;DHT22;4379;59.744;18.206;2023-03-19T15:49:00;6.40;99.90
8684;DHT22;4379;59.744;18.206;2023-03-19T15:51:02;6.40;99.90
8684;DHT22;4379;59.744;18.206;2023-03-19T15:53:32;6.40;99.90
8684;DHT22;4379;59.744;18.206;2023-03-19T15:56:02;6.30;99.90
8684;DHT22;4379;59.744;18.206;2023-03-19T15:58:31;6.40;99.90
8684;DHT22;4379;59.744;18.206;2023-03-19T16:01:06;6.50;99.90
8684;DHT22;4379;59.744;18.206;2023-03-19T16:03:39;6.30;99.90
8684;DHT22;4379;59.744;18.206;2023-03-19T16:06:37;6.20;99.90
8684;DHT22;4379;59.744;18.206;2023-03-19T16:09:20;6.20;99.90
8684;DHT22;4379;59.744;18.206;2023-03-19T16:11:49;6.10;99.90
8684;DHT22;4379;59.744;18.206;2023-03-19T16:14:40;6.00;99.90
8684;DHT22;4379;59.744;18.206;2023-03-19T16:17:15;5.90;99.90
8684;DHT22;4379;59.744;18.206;2023-03-19T16:19:50;5.90;99.90
8684;DHT22;4379;59.744;18.206;2023-03-19T16:22:28;5.70;99.90
8684;DHT22;4379;59.744;18.206;2023-03-19T16:24:56;5.70;99.90
8684;DHT22;4379;59.744;18.206;2023-03-19T16:27:35;5.70;99.90
8684;DHT22;4379;59.744;18.206;2023-03-19T16:30:11;5.70;99.90
8684;DHT22;4379;59.744;18.206;2023-03-19T16:32:40;5.70;99.90
8684;DHT22;4379;59.744;18.206;2023-03-19T16:35:16;5.60;99.90
8684;DHT22;4379;59.744;18.206;2023-03-19T16:37:48;5.60;99.90
8684;DHT22;4379;59.744;18.206;2023-03-19T16:42:50;5.50;99.90
8684;DHT22;4379;59.744;18.206;2023-03-19T16:45:24;5.50;99.90
8684;DHT22;4379;59.744;18.206;2023-03-19T16:47:53;5.60;99.90
8684;DHT22;4379;59.744;18.206;2023-03-19T16:50:26;5.50;99.90
8684;DHT22;4379;59.744;18.206;2023-03-19T16:52:57;5.50;99.90
8684;DHT22;4379;59.744;18.206;2023-03-19T16:55:30;5.40;99.90
8684;DHT22;4379;59.744;18.206;2023-03-19T16:58:04;5.40;99.90
8684;DHT22;4379;59.744;18.206;2023-03-19T17:00:32;5.20;99.90
8684;DHT22;4379;59.744;18.206;2023-03-19T17:03:00;5.20;99.90
8684;DHT22;4379;59.744;18.206;2023-03-19T17:05:28;5.20;99.90
8684;DHT22;4379;59.744;18.206;2023-03-19T17:07:56;5.10;99.90
8684;DHT22;4379;59.744;18.206;2023-03-19T17:10:26;5.10;99.90
8684;DHT22;4379;59.744;18.206;2023-03-19T17:12:54;5.10;99.90
8684;DHT22;4379;59.744;18.206;2023-03-19T17:15:30;5.10;99.90
8684;DHT22;4379;59.744;18.206;2023-03-19T17:17:58;5.10;99.90
8684;DHT22;4379;59.744;18.206;2023-03-19T17:20:38;5.10;99.90
8684;DHT22;4379;59.744;18.206;2023-03-19T17:23:11;5.10;99.90
8684;DHT22;4379;59.744;18.206;2023-03-19T17:25:39;5.00;99.90
8684;DHT22;4379;59.744;18.206;2023-03-19T17:28:06;5.00;99.90
8684;DHT22;4379;59.744;18.206;2023-03-19T17:30:33;4.80;99.90
8684;DHT22;4379;59.744;18.206;2023-03-19T17:33:01;4.90;99.90
8684;DHT22;4379;59.744;18.206;2023-03-19T17:35:28;4.90;99.90
8684;DHT22;4379;59.744;18.206;2023-03-19T17:37:56;5.00;99.90
8684;DHT22;4379;59.744;18.206;2023-03-19T17:40:25;5.00;99.90
8684;DHT22;4379;59.744;18.206;2023-03-19T17:42:55;4.90;99.90
8684;DHT22;4379;59.744;18.206;2023-03-19T17:45:26;4.80;99.90
8684;DHT22;4379;59.744;18.206;2023-03-19T17:47:57;4.80;99.90
8684;DHT22;4379;59.744;18.206;2023-03-19T17:50:27;4.70;99.90
8684;DHT22;4379;59.744;18.206;2023-03-19T17:52:59;4.70;99.90
8684;DHT22;4379;59.744;18.206;2023-03-19T17:55:28;4.70;99.90
8684;DHT22;4379;59.744;18.206;2023-03-19T17:57:55;4.80;99.90
8684;DHT22;4379;59.744;18.206;2023-03-19T18:00:23;4.70;99.90
8684;DHT22;4379;59.744;18.206;2023-03-19T18:02:53;4.70;99.90
8684;DHT22;4379;59.744;18.206;2023-03-19T18:05:23;4.70;99.90
8684;DHT22;4379;59.744;18.206;2023-03-19T18:07:53;4.70;99.90
8684;DHT22;4379;59.744;18.206;2023-03-19T18:10:24;4.70;99.90
8684;DHT22;4379;59.744;18.206;2023-03-19T18:12:56;4.70;99.90
8684;DHT22;4379;59.744;18.206;2023-03-19T18:15:27;4.60;99.90
8684;DHT22;4379;59.744;18.206;2023-03-19T18:18:00;4.70;99.90